Frontier, WY

1:37 AM MDT on October 16, 2019 (GMT -0600)
CST Inc. D'ville Shop | | Change Station
Active Advisory: Fire Weather Advisory

Elev 6972 ft 41.77 °N, 110.54 °W | Updated 22 minutes ago

Clear
Clear
29.8 °F
Feels Like 30 °F
N
2
Wind Variable Wind from WSW
Gusts 3.0 mph

Today
High -- | Low -- °F
--% Chance of Precip.
Yesterday
High -- | Low -- °F
Precip. -- in
Pressure 30.30 in
Visibility 10.0 miles
Clouds Clear
Windchill 30 °F
Dew Point 19 °F
Humidity 64%
Rainfall 0.00 in
Snow Depth Not available.
7:35 AM 6:39 PM
Waning Gibbous, 94% visible
METAR KEMM 160715Z AUTO 34005KT 10SM CLR 00/M08 A3030 RMK AO2
Pressure 30.30 in
Visibility 10.0 miles
Clouds Clear
Windchill 30 °F
Dew Point 19 °F
Humidity 64%
Rainfall 0.00 in
Snow Depth Not available.
7:35 AM 6:39 PM
Waning Gibbous, 94% visible
METAR KEMM 160715Z AUTO 34005KT 10SM CLR 00/M08 A3030 RMK AO2

Get Your Daily Forecast Email!

Thanks for signing up!

Be on the lookout for a verification email in your inbox.

You'll start receiving severe weather alerts in your inbox..

×

10-Day Weather Forecast

Almanac

Astronomy

Oct. 16, 2019 Rise Set
Actual Time
Civil Twilight
Nautical Twilight
Astronomical Twilight
Moon
Length of Visible Light
Length of Day
Tomorrow will be .
, % of the Moon is Illuminated

Today's Extremes

State Highs State Lows

Community

WunderPhotos

Category 6

Welcome to Category 6. This is the collective home for Weather Underground's featured writeups by Dr. Jeff Masters (right), Bob Henson (left), Chris Burt, and other regular contributors.

Nearby

Air Quality

  Air Quality AQ Index Pollutant
Not available.

Snow Depth

Station Depth Elevation

Earthquake Activity

City Distance Mag. Time & Date
Minimum magnitude displayed is 2.5.

Coastal Water Temperatures

Place Temperature

Stations

Nearby Weather Stations

Station Location Temp. Windchill Dew Point Humidity Wind Precip. Elev Updated Type
                   

Watches & Warnings

Fire Weather Advisory
Issued: 2:37 PM MDT Oct. 14, 2019 – National Weather Service

... Red flag warning remains in effect until 7 PM MDT this
evening...

* impacts: low humidities and strong gusty winds will create
erratic fire behavior and new fire starts. At 230 PM, a reporting
station at Continental Divide reported a west southwest wind gust
of 32 mph along with a relative humidity of 11 percent.

* Affected area:
in southwest WY fire zones... 277... 279.
In west central WY fire zone... .278.

* Wind: west 10 to 20 mph with gusts up to 30 mph.

* Humidity: as low as 11 percent.

Precautionary/preparedness actions...

A red flag warning means that critical fire weather conditions are
either occurring now... .or will shortly. A combination of strong
winds... low relative humidity... and warm temperatures can
contribute to extreme fire behavior.



Http://weather.Gov/Riverton